Time;durP1;ratioP1;P1;durP2;ratioP2;P2;SDS_P1;SDS_P2;PMS_P1;PMS_P2;Temp;Humidity;BMP_temperature;BMP_pressure;BME280_temperature;BME280_humidity;BME280_pressure;Samples;Min_cycle;Max_cycle;Signal;HPM_P1;HPM_P2
2023/01/24 00:00:35;;;;;;;22.13;9.32;;;;;;;2.17;100.00;103753.44;5032495;28;20010;-64
2023/01/24 00:03:00;;;;;;;22.10;10.35;;;;;;;2.14;100.00;103744.81;5032197;28;20033;-64
2023/01/24 00:05:26;;;;;;;23.70;11.15;;;;;;;2.17;100.00;103749.91;5032428;28;20108;-64
2023/01/24 00:07:51;;;;;;;20.90;9.85;;;;;;;2.14;100.00;103756.19;5014604;28;20078;-64
2023/01/24 00:10:17;;;;;;;21.98;10.82;;;;;;;2.11;100.00;103744.94;5032225;28;20033;-64
2023/01/24 00:12:42;;;;;;;21.90;11.48;;;;;;;2.17;100.00;103752.56;5032125;28;20037;-70
2023/01/24 00:15:08;;;;;;;21.33;9.68;;;;;;;2.18;99.94;103749.03;5032261;28;20083;-70
2023/01/24 00:17:34;;;;;;;19.08;10.00;;;;;;;2.18;99.90;103765.66;5032065;28;20120;-70
2023/01/24 00:19:59;;;;;;;21.45;9.40;;;;;;;2.18;100.00;103762.19;5032208;28;20967;-71
2023/01/24 00:22:24;;;;;;;23.55;9.68;;;;;;;2.17;99.98;103752.56;5032139;28;20029;-70
2023/01/24 00:24:50;;;;;;;19.67;9.27;;;;;;;2.14;100.00;103750.91;5031140;28;20384;-70
2023/01/24 00:27:16;;;;;;;23.00;10.55;;;;;;;2.11;100.00;103740.53;5032142;28;20111;-70
2023/01/24 00:29:42;;;;;;;21.08;9.57;;;;;;;2.10;100.00;103741.47;5031779;28;20030;-70
2023/01/24 00:32:08;;;;;;;21.27;9.90;;;;;;;2.12;100.00;103746.66;5032037;28;20550;-70
2023/01/24 00:34:33;;;;;;;21.02;9.48;;;;;;;2.10;100.00;103744.09;5031887;28;20378;-70
2023/01/24 00:36:59;;;;;;;18.30;8.55;;;;;;;2.07;100.00;103741.63;5031961;28;20061;-70
2023/01/24 00:39:24;;;;;;;18.67;8.95;;;;;;;2.09;100.00;103733.63;5031873;28;20489;-70
2023/01/24 00:41:49;;;;;;;21.95;10.60;;;;;;;2.09;100.00;103731.00;5031673;28;20176;-70
2023/01/24 00:44:15;;;;;;;21.90;9.02;;;;;;;2.07;100.00;103724.94;5031855;28;20117;-71
2023/01/24 00:46:41;;;;;;;24.60;10.52;;;;;;;2.07;100.00;103730.19;5031575;28;20022;-70
2023/01/24 00:49:07;;;;;;;21.95;9.82;;;;;;;2.00;100.00;103719.13;5031583;28;20037;-71
2023/01/24 00:51:32;;;;;;;19.90;8.93;;;;;;;2.01;100.00;103717.34;5031638;28;20030;-71
2023/01/24 00:53:58;;;;;;;24.88;12.10;;;;;;;2.02;100.00;103727.81;5031711;28;20072;-71
2023/01/24 00:56:23;;;;;;;21.08;10.18;;;;;;;2.03;100.00;103732.13;5031516;28;20102;-70
2023/01/24 00:58:48;;;;;;;25.55;10.65;;;;;;;1.96;100.00;103707.00;5031613;28;20061;-70
2023/01/24 01:01:14;;;;;;;20.48;9.85;;;;;;;2.04;100.00;103717.19;5031398;28;20120;-70
2023/01/24 01:03:39;;;;;;;21.48;10.02;;;;;;;2.04;100.00;103722.44;5031354;28;20057;-71
2023/01/24 01:06:09;;;;;;;22.90;11.60;;;;;;;2.01;100.00;103709.44;5031186;28;20076;-71
2023/01/24 01:08:34;;;;;;;20.10;10.07;;;;;;;2.03;100.00;103720.75;5031777;28;20029;-71
2023/01/24 01:11:00;;;;;;;21.40;8.50;;;;;;;2.00;100.00;103711.22;5031162;28;20041;-70
2023/01/24 01:13:27;;;;;;;20.95;9.48;;;;;;;1.95;100.00;103705.31;5031415;28;20030;-64
2023/01/24 01:16:19;;;;;;;21.88;10.75;;;;;;;2.03;100.00;103712.84;5031116;28;20461;-64
2023/01/24 01:18:46;;;;;;;21.75;9.98;;;;;;;2.04;100.00;103710.13;5030503;28;20044;-64
2023/01/24 01:21:14;;;;;;;22.77;9.70;;;;;;;2.03;100.00;103711.06;5031168;28;20038;-64
2023/01/24 01:23:39;;;;;;;20.80;9.73;;;;;;;2.03;100.00;103718.13;5030889;28;20052;-64
2023/01/24 01:26:08;;;;;;;19.13;8.50;;;;;;;2.00;100.00;103711.22;5030892;28;20040;-64
2023/01/24 01:28:34;;;;;;;18.33;7.90;;;;;;;2.00;100.00;103716.47;5030011;28;20033;-64
2023/01/24 01:30:59;;;;;;;20.38;9.10;;;;;;;2.01;100.00;103717.34;5029425;28;20053;-64
2023/01/24 01:33:25;;;;;;;22.23;9.10;;;;;;;2.03;100.00;103718.13;5029858;28;20029;-64
2023/01/24 01:35:51;;;;;;;20.92;8.57;;;;;;;2.03;100.00;103716.34;5029871;28;20102;-64
2023/01/24 01:38:17;;;;;;;22.02;10.20;;;;;;;2.00;100.00;103721.75;5029148;28;20042;-64
2023/01/24 01:40:43;;;;;;;20.75;10.10;;;;;;;2.02;100.00;103726.91;5029416;28;20163;-64
2023/01/24 01:43:13;;;;;;;20.88;10.15;;;;;;;2.00;100.00;103721.75;5030358;28;20167;-64
2023/01/24 01:45:44;;;;;;;23.30;9.60;;;;;;;2.03;100.00;103726.88;5029533;28;20477;-64
2023/01/24 01:48:19;;;;;;;20.75;10.52;;;;;;;1.90;100.00;103699.41;5029555;28;20021;-64
2023/01/24 01:50:53;;;;;;;22.77;9.95;;;;;;;2.00;100.00;103721.75;5029382;28;20029;-64
2023/01/24 01:53:21;;;;;;;21.02;9.80;;;;;;;2.00;100.00;103718.25;5029588;28;20037;-64
2023/01/24 01:55:51;;;;;;;22.70;9.82;;;;;;;1.98;100.00;103721.81;5029533;28;20053;-64
2023/01/24 01:58:18;;;;;;;19.33;9.88;;;;;;;1.97;100.00;103722.75;5030188;28;20026;-64
2023/01/24 02:00:49;;;;;;;23.30;10.90;;;;;;;1.98;100.00;103715.69;5030389;28;20432;-64
2023/01/24 02:06:03;;;;;;;22.55;13.05;;;;;;;1.98;100.00;103713.06;5030595;28;20079;-64
2023/01/24 02:08:29;;;;;;;22.50;11.15;;;;;;;1.93;100.00;103710.63;5029575;28;20061;-64
2023/01/24 02:13:43;;;;;;;23.23;10.32;;;;;;;1.92;100.00;103716.81;5029600;28;20503;-64
2023/01/24 02:16:11;;;;;;;22.02;10.50;;;;;;;1.91;100.00;103708.97;5030062;28;20021;-64
2023/01/24 02:18:39;;;;;;;23.95;11.13;;;;;;;1.90;100.00;103709.91;5030015;28;20661;-64
2023/01/24 02:21:09;;;;;;;21.02;9.85;;;;;;;1.89;100.00;103716.13;5030006;28;20373;-64
2023/01/24 02:23:59;;;;;;;19.10;9.52;;;;;;;1.90;100.00;103707.28;5029770;28;20500;-64
2023/01/24 02:26:27;;;;;;;22.70;11.02;;;;;;;1.89;100.00;103713.50;5029967;28;20479;-64
2023/01/24 02:29:04;;;;;;;21.33;9.95;;;;;;;1.88;100.00;103715.25;5029809;28;20037;-64
2023/01/24 02:31:30;;;;;;;23.65;10.10;;;;;;;1.86;100.00;103714.47;5029228;28;20050;-64
2023/01/24 02:33:55;;;;;;;20.85;9.60;;;;;;;1.86;100.00;103714.47;5011887;28;20055;-64
2023/01/24 02:36:39;;;;;;;18.17;8.43;;;;;;;1.86;100.00;103716.22;5029249;28;20025;-64
2023/01/24 02:39:12;;;;;;;25.52;10.60;;;;;;;1.84;100.00;103708.44;5029135;28;20029;-64
2023/01/24 02:41:56;;;;;;;24.33;10.95;;;;;;;1.85;100.00;103715.38;5029303;28;20033;-64
2023/01/24 02:44:31;;;;;;;22.13;10.60;;;;;;;1.85;100.00;103711.91;5029388;28;20385;-64
2023/01/24 02:46:56;;;;;;;21.08;10.55;;;;;;;1.81;100.00;103721.72;5028865;28;20037;-64
2023/01/24 02:49:22;;;;;;;21.63;10.43;;;;;;;1.80;100.00;103719.16;5028683;28;20037;-64
2023/01/24 02:54:31;;;;;;;23.02;11.60;;;;;;;1.78;100.00;103719.19;5029493;28;20123;-64
2023/01/24 02:59:40;;;;;;;26.58;14.02;;;;;;;1.75;100.00;103709.66;5029815;28;20040;-64
2023/01/24 03:02:05;;;;;;;23.75;12.63;;;;;;;1.75;100.00;103719.34;5029560;28;20041;-64
2023/01/24 03:04:31;;;;;;;23.70;13.90;;;;;;;1.73;100.00;103714.16;5029577;28;20179;-64
2023/01/24 03:06:56;;;;;;;21.33;11.88;;;;;;;1.73;100.00;103714.16;5029572;28;20036;-64
2023/01/24 03:09:33;;;;;;;22.88;12.07;;;;;;;1.71;100.00;103712.53;5029342;28;20030;-64
2023/01/24 03:36:39;;;;;;;24.65;13.07;;;;;;;1.61;100.00;103706.81;5028601;28;20072;-64
2023/01/24 03:41:48;;;;;;;23.80;10.38;;;;;;;1.58;100.00;103690.31;5028353;28;20103;-64
2023/01/24 03:44:14;;;;;;;24.20;11.30;;;;;;;1.58;100.00;103709.56;5010833;28;20041;-64
2023/01/24 03:46:39;;;;;;;22.77;11.70;;;;;;;1.58;100.00;103712.22;5028758;28;20033;-64
2023/01/24 03:49:08;;;;;;;23.73;10.95;;;;;;;1.59;100.00;103713.91;5028709;28;20100;-64
2023/01/24 03:54:18;;;;;;;23.02;10.77;;;;;;;1.55;100.00;103707.09;5028602;28;20404;-64
2023/01/24 03:56:43;;;;;;;23.35;11.68;;;;;;;1.54;100.00;103700.94;5028620;28;20022;-64
2023/01/24 03:59:09;;;;;;;23.05;11.60;;;;;;;1.53;100.00;103703.66;5028389;28;20497;-64
2023/01/24 04:01:34;;;;;;;22.88;11.20;;;;;;;1.52;100.00;103700.19;5032016;28;20970;-64
2023/01/24 04:03:59;;;;;;;23.85;11.90;;;;;;;1.51;100.00;103706.34;5032392;28;20048;-64
2023/01/24 04:06:25;;;;;;;23.30;10.20;;;;;;;1.50;100.00;103706.44;5032475;28;20091;-64
2023/01/24 04:08:50;;;;;;;23.25;12.10;;;;;;;1.46;100.00;103708.31;5032306;28;20088;-64
2023/01/24 04:11:16;;;;;;;25.08;12.70;;;;;;;1.48;100.00;103706.50;5014647;28;20037;-64
2023/01/24 04:13:42;;;;;;;21.50;10.73;;;;;;;1.49;100.00;103707.34;5032104;28;20099;-64
2023/01/24 04:16:08;;;;;;;25.17;11.55;;;;;;;1.49;100.00;103702.06;5032378;28;20036;-64
2023/01/24 04:18:36;;;;;;;21.48;10.60;;;;;;;1.49;100.00;103699.44;5032367;28;20036;-64
2023/01/24 04:21:02;;;;;;;24.10;11.55;;;;;;;1.47;100.00;103706.56;5032293;28;20029;-64
2023/01/24 04:23:28;;;;;;;24.13;13.43;;;;;;;1.47;100.00;103702.16;5032150;28;20032;-64
2023/01/24 04:25:59;;;;;;;23.05;10.48;;;;;;;1.47;100.00;103698.69;5032021;28;20033;-64
2023/01/24 04:28:25;;;;;;;21.45;10.50;;;;;;;1.47;100.00;103703.94;5031900;28;20041;-64
2023/01/24 04:30:57;;;;;;;22.38;10.32;;;;;;;1.47;100.00;103709.19;5031931;28;20053;-64
2023/01/24 04:33:22;;;;;;;23.95;11.15;;;;;;;1.44;100.00;103706.69;5031861;28;20049;-64
2023/01/24 04:35:48;;;;;;;23.50;10.70;;;;;;;1.44;100.00;103707.56;5030916;28;20389;-64
2023/01/24 04:38:13;;;;;;;24.33;11.02;;;;;;;1.44;100.00;103704.03;5031082;28;20057;-64
2023/01/24 04:40:40;;;;;;;22.75;11.18;;;;;;;1.44;100.00;103714.56;5030826;28;20029;-64
2023/01/24 04:43:05;;;;;;;19.98;9.38;;;;;;;1.45;100.00;103711.03;5031348;28;20120;-64
2023/01/24 04:45:31;;;;;;;24.42;10.43;;;;;;;1.44;100.00;103712.81;5031277;28;20552;-64
2023/01/24 04:47:56;;;;;;;20.20;10.40;;;;;;;1.45;100.00;103717.13;5031359;28;20027;-64
2023/01/24 04:50:22;;;;;;;20.77;8.75;;;;;;;1.43;100.00;103716.34;5031263;28;20030;-64
2023/01/24 04:52:47;;;;;;;22.67;10.30;;;;;;;1.40;100.00;103713.00;5031264;28;20043;-64
2023/01/24 04:55:12;;;;;;;23.55;11.07;;;;;;;1.41;100.00;103710.28;5030849;28;20065;-64
2023/01/24 04:57:38;;;;;;;22.80;11.88;;;;;;;1.41;100.00;103719.97;5030888;28;20065;-64
2023/01/24 05:00:04;;;;;;;21.88;10.85;;;;;;;1.38;100.00;103706.94;5031029;28;20048;-64
2023/01/24 05:02:29;;;;;;;21.52;11.80;;;;;;;1.37;100.00;103700.00;5031039;28;20385;-64
2023/01/24 05:04:55;;;;;;;24.02;10.68;;;;;;;1.40;100.00;103713.00;5031606;28;20024;-64
2023/01/24 05:07:20;;;;;;;20.73;9.48;;;;;;;1.41;100.00;103710.28;5031245;28;20143;-64
2023/01/24 05:09:45;;;;;;;19.45;10.38;;;;;;;1.38;100.00;103709.59;5031308;28;20496;-64
2023/01/24 05:12:11;;;;;;;23.60;11.70;;;;;;;1.35;100.00;103709.72;5030846;28;20067;-64
2023/01/24 05:14:36;;;;;;;23.13;11.63;;;;;;;1.37;100.00;103715.78;5031189;28;20123;-64
2023/01/24 05:17:01;;;;;;;21.33;9.32;;;;;;;1.33;100.00;103707.13;5031053;28;20033;-64
2023/01/24 05:19:27;;;;;;;21.33;10.88;;;;;;;1.29;100.00;103709.06;5031136;28;20120;-65
2023/01/24 05:21:52;;;;;;;22.73;11.90;;;;;;;1.31;100.00;103720.38;5030966;28;20037;-64
2023/01/24 05:24:18;;;;;;;22.40;11.48;;;;;;;1.33;100.00;103727.31;5030970;28;20405;-64
2023/01/24 05:26:43;;;;;;;19.58;10.00;;;;;;;1.28;100.00;103727.50;5030812;28;20033;-64
2023/01/24 05:29:09;;;;;;;21.20;9.23;;;;;;;1.29;100.00;103716.09;5030458;28;20025;-64
2023/01/24 05:31:34;;;;;;;22.73;10.90;;;;;;;1.28;100.00;103720.50;5030699;28;20058;-70
2023/01/24 05:33:59;;;;;;;21.58;11.57;;;;;;;1.29;100.00;103726.63;5030778;28;20041;-71
2023/01/24 05:36:25;;;;;;;19.67;10.32;;;;;;;1.28;100.00;103719.63;5030103;28;20029;-71
2023/01/24 05:38:50;;;;;;;25.00;12.48;;;;;;;1.28;100.00;103724.88;5029617;28;20484;-71
2023/01/24 05:41:18;;;;;;;22.02;10.25;;;;;;;1.26;100.00;103727.59;5030329;28;20655;-71
2023/01/24 05:43:45;;;;;;;24.77;12.63;;;;;;;1.28;100.00;103724.88;5030618;28;20033;-71
2023/01/24 05:46:14;;;;;;;21.20;10.15;;;;;;;1.24;100.00;103721.53;5012972;28;20033;-71
2023/01/24 05:48:41;;;;;;;24.77;12.45;;;;;;;1.25;100.00;103736.38;5030567;28;20036;-71
2023/01/24 05:51:09;;;;;;;21.90;10.63;;;;;;;1.30;100.00;103741.47;5030551;28;20037;-72
2023/01/24 05:53:37;;;;;;;21.48;10.30;;;;;;;1.24;100.00;103739.94;5012453;28;20404;-71
2023/01/24 05:56:13;;;;;;;21.00;9.98;;;;;;;1.24;100.00;103741.72;5029622;28;20021;-71
2023/01/24 05:58:40;;;;;;;21.95;9.50;;;;;;;1.23;100.00;103740.88;5029466;28;20143;-71
2023/01/24 06:01:20;;;;;;;21.50;10.43;;;;;;;1.26;100.00;103747.78;5030367;28;20033;-71
2023/01/24 06:03:48;;;;;;;22.00;10.20;;;;;;;1.23;100.00;103747.88;5030250;28;20071;-71
2023/01/24 06:06:16;;;;;;;25.58;10.38;;;;;;;1.21;100.00;103755.84;5030387;28;20021;-71
2023/01/24 06:08:42;;;;;;;26.52;10.93;;;;;;;1.21;100.00;103755.00;5030189;28;20040;-71
2023/01/24 06:11:13;;;;;;;27.85;12.13;;;;;;;1.19;100.00;103754.19;5030112;28;20543;-71
2023/01/24 06:13:39;;;;;;;22.58;10.90;;;;;;;1.19;100.00;103752.41;5012353;28;20386;-71
2023/01/24 06:16:06;;;;;;;23.98;11.52;;;;;;;1.18;100.00;103752.47;5030163;28;20033;-71
2023/01/24 06:18:33;;;;;;;24.33;12.38;;;;;;;1.18;100.00;103753.34;5030188;28;20413;-71
2023/01/24 06:21:04;;;;;;;24.40;12.52;;;;;;;1.20;100.00;103758.53;5030053;28;20049;-71
2023/01/24 06:23:30;;;;;;;;;;;;;;;1.18;100.00;103757.72;5029655;28;20029;-70
2023/01/24 06:25:55;;;;;;;23.83;11.60;;;;;;;1.11;100.00;103749.25;5029889;28;20055;-70
2023/01/24 06:28:21;;;;;;;21.65;12.07;;;;;;;1.08;100.00;103750.25;5029793;28;20481;-71
2023/01/24 06:30:56;;;;;;;20.20;11.32;;;;;;;1.10;100.00;103758.03;5029633;28;20503;-70
2023/01/24 06:33:29;;;;;;;24.60;11.27;;;;;;;1.05;100.00;103760.88;5029273;28;20105;-71
2023/01/24 06:36:14;;;;;;;25.75;12.18;;;;;;;1.10;100.00;103763.28;5029125;28;20033;-71
2023/01/24 06:38:40;;;;;;;24.58;12.07;;;;;;;1.08;100.00;103766.00;5028805;28;20025;-71
2023/01/24 06:41:14;;;;;;;25.23;11.57;;;;;;;1.08;100.00;103770.41;5028433;28;20052;-71
2023/01/24 06:43:39;;;;;;;23.40;11.20;;;;;;;1.05;100.00;103768.78;5028465;28;20032;-71
2023/01/24 06:46:05;;;;;;;22.42;11.65;;;;;;;1.08;100.00;103767.78;5028521;28;20041;-71
2023/01/24 06:48:30;;;;;;;27.23;13.95;;;;;;;1.08;100.00;103778.31;5029481;28;20117;-71
2023/01/24 06:50:56;;;;;;;26.27;12.35;;;;;;;1.06;100.00;103775.72;5029488;28;20384;-71
2023/01/24 06:53:21;;;;;;;26.30;13.93;;;;;;;1.01;100.00;103767.16;5029653;28;20033;-73
2023/01/24 06:55:46;;;;;;;25.10;11.38;;;;;;;1.03;100.00;103765.34;5029517;28;20025;-71
2023/01/24 06:58:12;;;;;;;27.48;13.55;;;;;;;1.01;100.00;103767.16;5029569;28;20025;-70
2023/01/24 07:00:37;;;;;;;25.73;11.88;;;;;;;1.00;100.00;103765.47;5029525;28;20032;-71
2023/01/24 07:03:08;;;;;;;23.90;11.38;;;;;;;1.00;100.00;103762.00;5029575;28;20029;-73
2023/01/24 07:05:35;;;;;;;25.63;12.45;;;;;;;1.01;100.00;103772.41;5029135;28;20485;-73
2023/01/24 07:08:01;;;;;;;26.05;13.60;;;;;;;0.97;100.00;103775.22;5029085;28;20362;-73
2023/01/24 07:11:11;;;;;;;24.58;11.40;;;;;;;0.99;100.00;103781.28;5029221;28;20036;-73
2023/01/24 07:13:22;;;;;;;27.02;13.68;;;;;;;0.98;100.00;103783.06;5022808;28;20049;-74
2023/01/24 07:15:47;;;;;;;23.58;11.23;;;;;;;0.98;100.00;103785.69;5029191;28;20053;-72
2023/01/24 07:18:15;;;;;;;26.05;13.23;;;;;;;0.97;100.00;103796.25;5029363;28;20090;-71
2023/01/24 07:20:40;;;;;;;28.98;14.77;;;;;;;1.00;100.00;103801.41;5029286;28;20021;-74
2023/01/24 07:23:18;;;;;;;25.85;13.82;;;;;;;0.98;100.00;103795.34;5029405;28;20056;-71
2023/01/24 07:25:44;;;;;;;28.67;13.93;;;;;;;0.96;100.00;103805.91;5029101;28;20028;-67
2023/01/24 07:28:10;;;;;;;28.30;12.63;;;;;;;0.97;100.00;103810.28;5029224;28;20037;-66
2023/01/24 07:30:35;;;;;;;24.80;13.32;;;;;;;0.98;100.00;103813.75;5028942;28;20149;-66
2023/01/24 07:33:00;;;;;;;25.83;12.48;;;;;;;0.95;100.00;103812.09;5029006;28;20045;-68
2023/01/24 07:35:27;;;;;;;27.17;14.18;;;;;;;0.93;100.00;103808.66;5032222;28;20037;-64
2023/01/24 07:37:54;;;;;;;24.40;12.50;;;;;;;0.97;100.00;103806.75;5032810;28;20124;-70
2023/01/24 07:40:20;;;;;;;25.60;12.88;;;;;;;0.95;100.00;103812.09;5028056;28;20468;-65
2023/01/24 07:42:45;;;;;;;26.10;11.15;;;;;;;0.95;100.00;103811.25;5027770;28;20099;-66
2023/01/24 07:45:10;;;;;;;24.00;11.82;;;;;;;0.95;100.00;103813.88;5032467;28;20021;-66
2023/01/24 07:47:39;;;;;;;25.30;12.00;;;;;;;0.94;100.00;103815.63;5032439;28;20033;-70
2023/01/24 07:50:07;;;;;;;23.40;11.23;;;;;;;0.95;100.00;103821.75;5032392;28;20480;-72
2023/01/24 07:52:39;;;;;;;27.45;14.77;;;;;;;0.94;100.00;103826.13;5032328;28;20052;-72
2023/01/24 07:55:04;;;;;;;30.88;14.65;;;;;;;0.87;100.00;103820.28;5014738;28;20037;-65
2023/01/24 07:57:30;;;;;;;27.90;12.20;;;;;;;0.90;100.00;103831.59;5032180;28;20022;-65
2023/01/24 07:59:55;;;;;;;24.75;11.93;;;;;;;0.91;100.00;103833.28;5032049;28;20473;-65
2023/01/24 08:02:20;;;;;;;26.90;12.98;;;;;;;0.90;100.00;103827.19;5031918;28;20142;-67
2023/01/24 08:04:46;;;;;;;26.98;12.82;;;;;;;0.87;100.00;103835.19;5031982;28;20041;-65
2023/01/24 08:07:17;;;;;;;23.65;10.45;;;;;;;0.86;100.00;103834.34;5032109;28;20033;-69
2023/01/24 08:09:45;;;;;;;23.58;10.20;;;;;;;0.86;100.00;103836.97;5032085;28;20043;-70
2023/01/24 08:12:11;;;;;;;23.45;10.52;;;;;;;0.85;100.00;103844.91;5032224;28;20045;-65
2023/01/24 08:14:36;;;;;;;24.33;11.70;;;;;;;0.85;100.00;103837.88;5014324;28;20483;-68
2023/01/24 08:17:02;;;;;;;26.33;13.20;;;;;;;0.86;100.00;103830.84;5032223;28;20068;-66
2023/01/24 08:19:27;;;;;;;25.80;14.25;;;;;;;0.86;100.00;103829.09;5032249;28;20120;-66
2023/01/24 08:21:52;;;;;;;25.73;11.98;;;;;;;0.88;100.00;103831.63;5032090;28;20122;-66
2023/01/24 08:24:18;;;;;;;24.38;11.60;;;;;;;0.90;100.00;103840.31;5014199;28;20036;-65
2023/01/24 08:26:46;;;;;;;27.95;11.73;;;;;;;0.89;100.00;103838.59;5032076;28;20029;-68
2023/01/24 08:29:12;;;;;;;25.52;11.98;;;;;;;0.92;100.00;103842.88;5031973;28;20400;-67
2023/01/24 08:31:37;;;;;;;26.05;13.27;;;;;;;0.87;100.00;103836.03;5031906;28;20057;-72
2023/01/24 08:34:03;;;;;;;24.42;12.68;;;;;;;0.91;100.00;103841.16;5032016;28;20033;-67
2023/01/24 08:36:28;;;;;;;27.65;13.65;;;;;;;0.86;100.00;103834.34;5032075;28;20029;-73
2023/01/24 08:38:54;;;;;;;27.48;12.73;;;;;;;0.93;100.00;103848.06;5028138;28;20468;-69
2023/01/24 08:41:19;;;;;;;26.70;11.93;;;;;;;0.93;100.00;103847.22;5025006;28;20941;-67
2023/01/24 08:43:45;;;;;;;26.35;11.73;;;;;;;0.81;100.00;103836.28;5025382;28;20076;-67
2023/01/24 08:46:10;;;;;;;24.25;11.48;;;;;;;0.92;100.00;103853.38;5024905;28;20489;-70
2023/01/24 08:48:35;;;;;;;26.17;13.10;;;;;;;0.93;100.00;103849.84;5025463;28;20187;-72
2023/01/24 08:51:06;;;;;;;27.67;12.35;;;;;;;0.94;100.00;103852.41;5025331;28;20080;-69
2023/01/24 08:53:32;;;;;;;24.53;11.83;;;;;;;0.97;100.00;103852.31;5025216;28;20463;-67
2023/01/24 08:55:57;;;;;;;22.27;10.93;;;;;;;1.00;100.00;103865.31;5025439;28;20363;-68
2023/01/24 08:58:25;;;;;;;25.38;12.63;;;;;;;0.98;100.00;103864.53;5025296;28;20481;-72
2023/01/24 09:00:50;;;;;;;26.70;14.00;;;;;;;0.99;100.00;103868.84;5025263;28;20112;-66
2023/01/24 09:03:18;;;;;;;24.92;11.73;;;;;;;1.01;100.00;103863.56;5025187;28;20132;-65
2023/01/24 09:05:43;;;;;;;25.75;10.68;;;;;;;1.01;100.00;103864.41;5024663;28;20029;-68
2023/01/24 09:08:09;;;;;;;23.27;11.55;;;;;;;1.00;100.00;103861.84;5024725;28;20121;-69
2023/01/24 09:10:34;;;;;;;26.67;12.95;;;;;;;0.99;100.00;103865.38;5024792;28;20033;-66
2023/01/24 09:13:01;;;;;;;27.35;13.88;;;;;;;0.98;100.00;103863.69;5025332;28;20029;-68
2023/01/24 09:15:26;;;;;;;24.95;11.88;;;;;;;0.97;100.00;103859.31;5025564;28;20033;-69
2023/01/24 09:17:52;;;;;;;27.25;11.15;;;;;;;1.00;100.00;103867.09;5025374;28;20032;-68
2023/01/24 09:20:18;;;;;;;25.27;11.32;;;;;;;1.00;100.00;103873.22;5024739;28;20036;-64
2023/01/24 09:22:44;;;;;;;24.23;12.13;;;;;;;1.00;100.00;103869.72;5026398;28;20124;-65
2023/01/24 09:25:09;;;;;;;24.40;12.38;;;;;;;1.01;100.00;103874.91;5030938;28;20120;-66
2023/01/24 09:27:35;;;;;;;25.35;12.18;;;;;;;0.95;100.00;103866.44;5030858;28;20029;-64
2023/01/24 09:30:01;;;;;;;23.90;11.20;;;;;;;0.98;100.00;103869.78;5030669;28;20470;-64
2023/01/24 09:32:26;;;;;;;20.15;9.38;;;;;;;1.00;100.00;103873.22;5030792;28;20056;-64
2023/01/24 09:34:51;;;;;;;23.58;12.18;;;;;;;0.97;100.00;103872.44;5030836;28;20087;-65
2023/01/24 09:37:18;;;;;;;20.13;10.02;;;;;;;1.02;100.00;103876.66;5012900;28;20408;-65
2023/01/24 09:39:44;;;;;;;22.95;11.10;;;;;;;0.97;100.00;103875.09;5030692;28;20021;-65
2023/01/24 09:42:18;;;;;;;23.90;11.40;;;;;;;1.02;100.00;103871.38;5012984;28;20038;-65
2023/01/24 09:44:59;;;;;;;20.40;9.35;;;;;;;1.01;100.00;103874.06;5030566;28;20021;-65
2023/01/24 09:47:35;;;;;;;26.63;12.07;;;;;;;1.02;100.00;103879.28;5030663;28;20029;-66
2023/01/24 09:50:04;;;;;;;21.30;9.68;;;;;;;1.02;100.00;103886.28;5030464;28;20037;-69
2023/01/24 09:52:44;;;;;;;20.90;9.13;;;;;;;1.04;100.00;103884.44;5030487;28;20033;-69
2023/01/24 09:55:28;;;;;;;22.95;9.98;;;;;;;1.05;100.00;103891.44;5030417;28;20025;-69
2023/01/24 09:58:08;;;;;;;22.75;10.20;;;;;;;1.07;100.00;103885.22;5029339;28;20028;-69
2023/01/24 10:00:37;;;;;;;22.00;10.35;;;;;;;1.05;100.00;103888.81;5030262;28;20436;-69
2023/01/24 10:03:12;;;;;;;23.77;9.88;;;;;;;1.07;100.00;103889.59;5030245;28;20022;-69
2023/01/24 10:05:39;;;;;;;27.52;11.27;;;;;;;1.15;100.00;103897.16;5030290;28;20047;-69
2023/01/24 10:08:05;;;;;;;23.45;12.05;;;;;;;1.20;100.00;103897.84;5030038;28;20662;-69
2023/01/24 10:10:51;;;;;;;22.10;10.45;;;;;;;1.25;100.00;103895.91;5030076;28;20030;-69
2023/01/24 10:13:41;;;;;;;22.55;11.13;;;;;;;1.28;100.00;103893.16;5030030;28;20041;-69
2023/01/24 10:16:06;;;;;;;24.55;12.05;;;;;;;1.23;100.00;103895.97;5029392;28;20113;-70
2023/01/24 10:18:56;;;;;;;21.67;10.65;;;;;;;1.20;100.00;103896.06;5029393;28;20104;-71
2023/01/24 10:21:30;;;;;;;22.70;10.68;;;;;;;1.25;100.00;103893.28;5030000;28;20104;-69
2023/01/24 10:24:03;;;;;;;22.65;10.13;;;;;;;1.33;100.00;103900.84;5029920;28;20087;-69
2023/01/24 10:26:31;;;;;;;22.05;10.50;;;;;;;1.35;100.00;103888.50;5029822;28;20037;-69
2023/01/24 10:29:07;;;;;;;21.58;9.05;;;;;;;1.35;100.00;103901.66;5029247;28;20037;-70
2023/01/24 10:31:56;;;;;;;22.80;9.85;;;;;;;1.37;100.00;103889.31;5029590;28;20075;-69
2023/01/24 10:34:31;;;;;;;25.48;11.02;;;;;;;1.33;100.00;103887.72;5016687;28;20088;-68
2023/01/24 10:37:13;;;;;;;21.13;9.35;;;;;;;1.35;100.00;103906.91;5029665;28;20547;-69
2023/01/24 10:39:39;;;;;;;21.42;9.23;;;;;;;1.34;100.00;103886.78;5029573;28;20021;-68
2023/01/24 10:42:33;;;;;;;24.30;10.43;;;;;;;1.41;100.00;103890.88;5029581;28;20116;-64
2023/01/24 10:45:01;;;;;;;21.85;10.55;;;;;;;1.43;100.00;103887.28;5015534;28;20049;-64
2023/01/24 10:47:26;;;;;;;19.42;8.90;;;;;;;1.42;100.00;103882.94;5028931;28;20041;-64
2023/01/24 10:50:00;;;;;;;21.90;10.88;;;;;;;1.45;100.00;103881.97;5029075;28;20036;-64
2023/01/24 10:52:25;;;;;;;20.60;8.93;;;;;;;1.44;100.00;103882.88;5029126;28;20025;-64
2023/01/24 10:54:56;;;;;;;21.52;8.48;;;;;;;1.46;100.00;103883.66;5029040;28;20048;-64
2023/01/24 10:57:48;;;;;;;23.00;9.70;;;;;;;1.44;100.00;103886.38;5028872;28;20484;-64
2023/01/24 11:00:34;;;;;;;23.73;10.65;;;;;;;1.43;100.00;103887.28;5028992;28;20053;-64
2023/01/24 11:03:02;;;;;;;23.70;9.27;;;;;;;1.39;100.00;103875.19;5028750;28;20030;-64
2023/01/24 11:05:51;;;;;;;20.90;9.85;;;;;;;1.42;100.00;103882.94;5028913;28;20025;-68
2023/01/24 11:08:18;;;;;;;23.25;11.30;;;;;;;1.37;100.00;103876.16;5029066;28;20108;-65
2023/01/24 11:10:43;;;;;;;20.90;9.82;;;;;;;1.35;100.00;103875.38;5032714;28;20029;-65
2023/01/24 11:13:34;;;;;;;19.65;9.55;;;;;;;1.34;100.00;103884.16;5033314;28;20408;-67
2023/01/24 11:16:21;;;;;;;24.05;10.40;;;;;;;1.29;100.00;103865.97;5022093;28;20429;-72
2023/01/24 11:18:55;;;;;;;20.52;8.95;;;;;;;1.38;100.00;103864.72;5032598;28;20041;-68
2023/01/24 11:21:21;;;;;;;22.40;10.07;;;;;;;1.43;100.00;103865.41;5032653;28;20108;-66
2023/01/24 11:23:59;;;;;;;22.58;9.75;;;;;;;1.45;100.00;103867.03;5032560;28;20049;-66
2023/01/24 11:26:35;;;;;;;22.73;10.15;;;;;;;1.48;100.00;103861.66;5033309;28;20021;-66
2023/01/24 11:29:20;;;;;;;21.55;10.27;;;;;;;1.48;100.00;103866.06;5033228;28;20476;-66
2023/01/24 11:31:51;;;;;;;20.45;9.05;;;;;;;1.44;100.00;103864.47;5033077;28;20325;-68
2023/01/24 11:34:55;;;;;;;19.15;9.18;;;;;;;1.41;100.00;103860.19;5033105;28;20025;-67
2023/01/24 11:37:59;;;;;;;19.90;9.15;;;;;;;1.38;100.00;103855.06;5019840;28;20045;-68
2023/01/24 11:40:40;;;;;;;21.92;10.10;;;;;;;1.38;100.00;103854.19;5032821;28;20045;-67
2023/01/24 11:43:26;;;;;;;19.20;7.90;;;;;;;1.38;100.00;103851.56;5032876;28;20120;-65
2023/01/24 11:46:30;;;;;;;19.65;8.27;;;;;;;1.38;100.00;103851.56;5032550;28;20450;-65
2023/01/24 11:49:02;;;;;;;20.67;8.20;;;;;;;1.35;100.00;103849.94;4999037;28;20037;-66
2023/01/24 11:51:46;;;;;;;28.30;9.85;;;;;;;1.36;100.00;103849.00;5032572;28;20029;-67
2023/01/24 11:54:45;;;;;;;21.38;10.23;;;;;;;1.27;100.00;103852.00;5032449;28;20053;-69
2023/01/24 11:57:36;;;;;;;20.23;10.05;;;;;;;1.34;100.00;103847.34;5032589;28;20035;-68
2023/01/24 12:00:31;;;;;;;19.92;9.07;;;;;;;1.25;100.00;103841.53;5032243;28;20017;-68
2023/01/24 12:03:33;;;;;;;19.60;7.75;;;;;;;1.28;100.00;103846.69;5032530;28;20396;-65